Lunenburg, Massachusetts
Current Conditions -  °F | °C
As of 9:52 AM on Friday 28 Nov 2014 (Local Time) from KFIT Reporting Station
Scattered Clouds Scattered Clouds  
Wind Chill: 24°   Ceiling: Unl
Heat Index: 31°   Visibility: 10mi
Dew Point: 22°   Wind: 7mph
Humidity: 69%   Direction: 300°WNW
Pressure: 30.08"   Gusts: NA
Location:  42.6°N, 71.72°W
Report Text: KFIT 281452Z AUTO 30006KT 10SM FEW032 SCT095 M01/M06 A3008 RMK AO2 SLP190 T10061056 51013
Loading
Personal Weather Stations






























Interactive Weather Map New forecast layout! Learn more

10-Day Weather Forecast

Advertisements
Track Severe Weather on mobile